This is the latest recevied weather packets stored in our database for station/object LKKU. If no packets are shown the sender has not sent any weather packets the latest 10 day(s).
| Time | Temp. | Humidity | Pressure | Rain* | Wind** | Luminosity | Snow |
|---|---|---|---|---|---|---|---|
| 1788603852 | 20° C | 60% | 1019 hPa | - | - | - | - |
| 1788603599 | 20° C | 60% | 1019 hPa | - | - | - | - |
| 1788603299 | 20° C | 60% | 1019 hPa | - | - | - | - |
| 1788602940 | 20° C | 60% | 1019 hPa | - | - | - | - |
| 1788602662 | 20° C | 60% | 1019 hPa | - | - | - | - |
| 1788601979 | 18.89° C | 68% | 1020 hPa | - | - | - | - |
| 1788601739 | 18.89° C | 68% | 1020 hPa | - | - | - | - |
| 1788601080 | 18.89° C | 68% | 1020 hPa | - | - | - | - |
| 1788600299 | 18.89° C | 68% | 1020 hPa | - | - | - | - |
| 1788600019 | 18.89° C | 68% | 1020 hPa | - | - | - | - |
| 1788599340 | 18.89° C | 68% | 1020 hPa | - | - | - | - |
| 1788598987 | 18.89° C | 68% | 1020 hPa | - | - | - | - |
| 1788597779 | 17.22° C | 88% | 1019 hPa | - | - | - | - |
| 1788595361 | 17.22° C | 88% | 1019 hPa | - | - | - | - |
| 1788593884 | 17.22° C | 88% | 1018 hPa | - | - | - | - |
| 1788591786 | 17.22° C | 82% | 1018 hPa | - | - | - | - |
| 1788526995 | 28.89° C | 39% | 1014 hPa | - | - | - | - |
| 1788523394 | 27.78° C | 42% | 1015 hPa | - | - | - | - |
| 1788519786 | 27.78° C | 42% | 1016 hPa | - | - | - | - |
| 1788515525 | 26.11° C | 47% | 1017 hPa | - | - | - | - |
| 1788508987 | 22.78° C | 56% | 1018 hPa | - | - | - | - |
| 1788505386 | 21.11° C | 64% | 1019 hPa | - | - | - | - |
| 1788501793 | 18.89° C | 72% | 1018 hPa | - | - | - | - |
| 1788498186 | 17.22° C | 77% | 1018 hPa | - | - | - | - |
| 1788440586 | 25° C | 41% | 1018 hPa | - | - | - | - |
* Rain since midnight (hover to see other rain measurements)
** Current wind speed in m/s (hover to see current wind gust speed)